Time;durP1;ratioP1;P1;durP2;ratioP2;P2;SDS_P1;SDS_P2;PMS_P1;PMS_P2;Temp;Humidity;BMP_temperature;BMP_pressure;BME280_temperature;BME280_humidity;BME280_pressure;Samples;Min_cycle;Max_cycle;Signal;HPM_P1;HPM_P2
2021/06/03 00:02:12;;;;;;;11.05;8.13;;;;;;;-150.07;46.91;63441.97;5007391;28;20022;-80
2021/06/03 00:04:40;;;;;;;10.48;8.10;;;;;;;-150.07;47.27;63387.53;4994392;28;20038;-80
2021/06/03 00:07:08;;;;;;;15.65;9.35;;;;;;;-150.07;47.75;64032.41;4993735;28;20033;-79
2021/06/03 00:09:35;;;;;;;17.85;9.82;;;;;;;-150.07;47.71;63213.78;4993596;28;20030;-81
2021/06/03 00:12:03;;;;;;;19.50;10.98;;;;;;;-150.07;48.12;64032.41;4992172;28;20046;-78
2021/06/03 00:14:30;;;;;;;18.65;10.88;;;;;;;-150.07;48.08;63412.66;4993691;28;20502;-80
2021/06/03 00:16:56;;;;;;;20.92;11.25;;;;;;;-150.07;48.13;63307.97;4994489;28;20031;-77
2021/06/03 00:19:23;;;;;;;25.25;12.75;;;;;;;-150.07;48.05;63291.22;5006453;28;20394;-80
2021/06/03 00:21:50;;;;;;;18.95;11.70;;;;;;;-150.07;48.04;63508.97;5011076;28;20448;-78
2021/06/03 00:24:17;;;;;;;26.13;13.30;;;;;;;-150.07;48.36;63550.84;5000918;28;20396;-80
2021/06/03 00:26:44;;;;;;;24.98;13.35;;;;;;;-150.07;48.60;63502.69;5010816;28;20034;-80
2021/06/03 00:29:13;;;;;;;18.35;11.93;;;;;;;-150.07;48.98;63496.41;5002949;28;20022;-79
2021/06/03 00:31:41;;;;;;;25.05;13.85;;;;;;;-150.07;49.62;63211.69;4992805;28;20117;-79
2021/06/03 00:34:08;;;;;;;20.38;14.35;;;;;;;-150.07;49.05;63366.59;5003309;28;20117;-79
2021/06/03 00:36:35;;;;;;;32.47;14.35;;;;;;;-150.07;48.94;63127.94;5011500;28;20065;-79
2021/06/03 00:39:01;;;;;;;34.80;15.02;;;;;;;-150.07;49.01;63770.66;5012667;28;20049;-79
2021/06/03 00:41:28;;;;;;;21.08;13.15;;;;;;;-150.07;48.68;63391.72;4998323;28;20056;-80
2021/06/03 00:43:55;;;;;;;18.38;12.70;;;;;;;-150.07;48.79;63374.97;5012675;28;20026;-80
2021/06/03 00:46:22;;;;;;;22.10;14.48;;;;;;;-150.07;48.67;63465.00;5012548;28;20018;-80
2021/06/03 00:48:50;;;;;;;23.25;14.48;;;;;;;-150.07;48.48;63986.34;5010945;28;20164;-80
2021/06/03 00:51:17;;;;;;;21.33;15.20;;;;;;;-150.07;48.51;63312.16;4998283;28;20030;-80
2021/06/03 00:53:43;;;;;;;26.23;16.45;;;;;;;-150.07;48.59;63408.47;5011457;28;20072;-80
2021/06/03 00:56:11;;;;;;;22.23;14.35;;;;;;;-150.07;49.12;63437.78;5001025;28;20108;-79
2021/06/03 00:58:38;;;;;;;17.60;14.35;;;;;;;-150.07;48.54;63347.75;5010273;28;20030;-79
2021/06/03 01:01:05;;;;;;;21.90;15.18;;;;;;;-150.07;48.18;63423.13;5012033;28;20113;-79
2021/06/03 01:03:33;;;;;;;21.98;14.60;;;;;;;-150.07;48.36;63418.94;5011880;28;20092;-79
2021/06/03 01:06:03;;;;;;;18.00;13.90;;;;;;;-150.07;48.46;63427.31;5018790;28;20042;-80
2021/06/03 01:08:43;;;;;;;22.23;14.77;;;;;;;-150.07;48.53;63393.81;5006817;28;20037;-80
2021/06/03 01:11:21;;;;;;;;;;;;;;;-150.07;48.66;63410.56;5022211;28;20383;-81
2021/06/03 01:13:57;;;;;;;25.42;14.40;;;;;;;-150.07;49.07;63358.22;5020414;28;19964;-79
2021/06/03 01:16:26;;;;;;;18.48;14.27;;;;;;;-150.07;49.22;63299.59;5020410;28;20030;-80
2021/06/03 01:18:54;;;;;;;20.77;13.85;;;;;;;-150.07;49.49;63284.94;5016524;28;20052;-79
2021/06/03 01:21:41;;;;;;;17.85;12.13;;;;;;;-150.07;49.39;63316.34;5009308;28;20026;-80
2021/06/03 01:24:25;;;;;;;19.08;11.95;;;;;;;-150.07;49.36;63257.75;5013721;28;20105;-80
2021/06/03 01:26:56;;;;;;;20.35;13.63;;;;;;;-150.07;49.07;63282.84;4999164;28;20026;-80
2021/06/03 01:29:23;;;;;;;22.02;11.20;;;;;;;-150.07;49.04;63190.75;5011554;28;20057;-80
2021/06/03 01:31:52;;;;;;;14.95;11.18;;;;;;;-150.07;49.07;63259.84;5011281;28;20022;-81
2021/06/03 01:34:22;;;;;;;16.88;10.25;;;;;;;-150.07;49.24;63266.09;5011850;28;20026;-80
2021/06/03 01:36:49;;;;;;;;;;;;;;;-150.07;49.03;63284.94;5013458;28;20045;-83
2021/06/03 01:39:17;;;;;;;15.52;9.93;;;;;;;-150.07;48.25;63391.72;5011881;28;19926;-80
2021/06/03 01:41:45;;;;;;;14.57;9.00;;;;;;;-150.07;48.08;63331.00;5011109;28;20057;-79
2021/06/03 01:44:13;;;;;;;14.20;8.63;;;;;;;-150.07;48.24;63994.72;4994203;28;20026;-79
2021/06/03 01:46:41;;;;;;;14.43;9.02;;;;;;;-150.07;48.71;63157.25;4991664;28;20022;-80
2021/06/03 01:49:08;;;;;;;15.18;8.93;;;;;;;-150.07;48.32;63211.69;4994698;28;20029;-79
2021/06/03 01:51:35;;;;;;;15.18;8.02;;;;;;;-150.07;48.10;63374.97;5001726;28;20034;-80
2021/06/03 01:54:02;;;;;;;21.63;8.73;;;;;;;-150.07;47.65;63372.88;5006446;28;20113;-79
2021/06/03 01:56:29;;;;;;;13.93;8.10;;;;;;;-150.07;46.33;63439.88;5010777;28;20057;-81
2021/06/03 01:58:58;;;;;;;12.48;7.32;;;;;;;-150.07;46.09;63496.41;5009657;28;20038;-80
2021/06/03 02:01:25;;;;;;;13.73;8.32;;;;;;;-150.07;45.89;63316.34;5011215;28;20541;-79
2021/06/03 02:03:51;;;;;;;12.15;8.65;;;;;;;-150.07;46.29;63444.06;5015442;28;20446;-79
2021/06/03 02:06:18;;;;;;;11.20;7.53;;;;;;;-150.07;46.28;63423.13;5014941;28;20041;-80
2021/06/03 02:08:45;;;;;;;16.77;7.80;;;;;;;-150.07;46.48;63412.66;5014624;28;20026;-78
2021/06/03 02:11:12;;;;;;;14.52;7.47;;;;;;;-150.07;46.95;63437.78;5014643;28;20490;-80
2021/06/03 02:13:42;;;;;;;13.52;7.35;;;;;;;-150.07;46.71;63475.47;5003143;28;20133;-80
2021/06/03 02:16:25;;;;;;;13.32;8.15;;;;;;;-150.07;46.99;64019.84;5013017;28;20064;-81
2021/06/03 02:18:55;;;;;;;17.52;8.55;;;;;;;-150.07;46.71;63391.72;5014542;28;20034;-80
2021/06/03 02:21:23;;;;;;;13.98;8.23;;;;;;;-150.07;47.06;63257.75;5014773;28;20585;-80
2021/06/03 02:23:50;;;;;;;15.43;8.68;;;;;;;-150.07;46.83;63421.03;5013359;28;20038;-80
2021/06/03 02:26:17;;;;;;;16.90;8.70;;;;;;;-150.07;46.56;63366.59;5014790;28;20061;-81
2021/06/03 02:28:45;;;;;;;15.88;9.27;;;;;;;-150.07;46.55;63272.38;5014826;28;20026;-79
2021/06/03 02:31:12;;;;;;;13.77;8.63;;;;;;;-150.07;46.31;63293.31;5014150;28;20426;-79
2021/06/03 02:33:40;;;;;;;17.58;7.88;;;;;;;-150.07;46.17;63400.09;5014319;28;20033;-78
2021/06/03 02:36:09;;;;;;;14.82;9.23;;;;;;;-150.07;45.41;63370.78;5014436;28;20029;-80
2021/06/03 02:38:39;;;;;;;15.68;8.18;;;;;;;-150.07;45.16;63561.31;5014419;28;20058;-79
2021/06/03 02:41:06;;;;;;;;;;;;;;;-150.07;45.53;63550.84;5014946;28;20025;-78
2021/06/03 02:43:41;;;;;;;16.08;7.88;;;;;;;-150.07;45.49;63483.84;5015869;28;20365;-80
2021/06/03 02:46:08;;;;;;;15.07;9.65;;;;;;;-150.07;45.94;63454.53;5014080;28;20022;-79
2021/06/03 02:48:35;;;;;;;15.13;8.43;;;;;;;-150.07;46.57;63462.91;5004952;28;20432;-80
2021/06/03 02:51:02;;;;;;;18.08;10.20;;;;;;;-150.07;46.78;63337.28;5009823;28;20021;-80
2021/06/03 02:53:28;;;;;;;17.73;9.80;;;;;;;-150.07;47.37;63253.56;5012603;28;20125;-79
2021/06/03 02:55:55;;;;;;;18.90;11.65;;;;;;;-150.07;48.38;63243.09;5014127;28;20041;-80
2021/06/03 02:58:22;;;;;;;17.17;12.63;;;;;;;-150.07;50.03;62962.56;5003646;28;20022;-79
2021/06/03 03:00:49;;;;;;;22.13;16.95;;;;;;;-150.07;51.82;63040.03;5009903;28;20033;-80
2021/06/03 03:03:18;;;;;;;32.20;19.45;;;;;;;-150.07;53.03;62604.63;5013694;28;20022;-80
2021/06/03 03:05:45;;;;;;;30.10;22.13;;;;;;;-150.07;53.58;62964.66;4999804;28;20030;-80
2021/06/03 03:08:12;;;;;;;24.55;21.00;;;;;;;-150.07;54.33;62891.41;5013485;28;20026;-82
2021/06/03 03:10:41;;;;;;;37.95;23.20;;;;;;;-150.07;54.67;62931.16;5013567;28;20053;-79
2021/06/03 03:13:09;;;;;;;31.60;20.10;;;;;;;-150.07;55.02;62926.97;5012854;28;20470;-79
2021/06/03 03:15:37;;;;;;;33.28;21.80;;;;;;;-150.07;56.14;62809.75;5013281;28;20038;-79
2021/06/03 03:18:05;;;;;;;26.67;22.10;;;;;;;-150.07;57.15;62784.63;5013417;28;20018;-80
2021/06/03 03:20:32;;;;;;;31.65;21.65;;;;;;;-150.07;57.96;62774.19;5012125;28;20096;-80
2021/06/03 03:22:59;;;;;;;31.48;23.17;;;;;;;-150.07;60.62;62736.50;5011193;28;20022;-80
2021/06/03 03:25:29;;;;;;;33.30;24.20;;;;;;;-150.07;61.15;62587.88;4993743;28;20045;-80
2021/06/03 03:27:57;;;;;;;32.78;25.90;;;;;;;-150.07;62.45;62420.44;4994192;28;20034;-80
2021/06/03 03:30:27;;;;;;;39.88;27.52;;;;;;;-150.07;63.53;63268.19;5003607;28;20030;-79
2021/06/03 03:32:55;;;;;;;34.30;24.63;;;;;;;-150.07;63.82;62533.47;4995778;28;20102;-80
2021/06/03 03:35:22;;;;;;;36.42;27.20;;;;;;;-150.07;64.50;62531.38;5003220;28;20030;-80
2021/06/03 03:37:50;;;;;;;36.22;27.00;;;;;;;-150.07;65.26;62516.72;5012978;28;20038;-79
2021/06/03 03:40:20;;;;;;;33.60;27.58;;;;;;;-150.07;65.51;62433.00;5012946;28;20081;-79
2021/06/03 03:42:48;;;;;;;33.17;25.05;;;;;;;-150.07;65.61;62472.75;5011806;28;20029;-79
2021/06/03 03:45:17;;;;;;;42.17;28.13;;;;;;;-150.07;65.91;62504.16;5012973;28;20037;-80
2021/06/03 03:47:44;;;;;;;44.73;31.23;;;;;;;-150.07;66.86;62412.06;4998939;28;20066;-80
2021/06/03 03:50:13;;;;;;;40.75;29.67;;;;;;;-150.07;66.80;62491.59;5009293;28;20034;-81
2021/06/03 03:52:40;;;;;;;36.42;29.27;;;;;;;-150.07;67.00;62525.09;5002706;28;20562;-80
2021/06/03 03:55:09;;;;;;;39.22;27.15;;;;;;;-150.07;66.73;62472.75;5012976;28;20509;-81
2021/06/03 03:57:37;;;;;;;38.88;30.83;;;;;;;-150.07;67.06;62558.56;5012714;28;20376;-82
2021/06/03 04:00:10;;;;;;;42.28;29.73;;;;;;;-150.07;67.13;63241.00;5013227;28;20022;-81
2021/06/03 04:02:37;;;;;;;35.85;30.05;;;;;;;-150.07;67.68;63150.97;5012328;28;20032;-81
2021/06/03 04:05:04;;;;;;;37.88;27.95;;;;;;;-150.07;67.88;62405.78;5013908;28;20061;-83
2021/06/03 04:07:31;;;;;;;40.13;30.33;;;;;;;-150.07;67.52;62491.59;5016375;28;20022;-82
2021/06/03 04:09:58;;;;;;;37.95;28.45;;;;;;;-150.07;67.43;62420.44;5014879;28;20029;-83
2021/06/03 04:12:25;;;;;;;37.97;28.70;;;;;;;-150.07;67.32;62491.59;5013939;28;20026;-81
2021/06/03 04:14:52;;;;;;;47.72;31.40;;;;;;;-150.07;68.20;63226.34;5013793;28;20100;-82
2021/06/03 04:17:19;;;;;;;36.10;29.70;;;;;;;-150.07;68.05;62443.47;5012968;28;20038;-81
2021/06/03 04:19:46;;;;;;;39.08;30.58;;;;;;;-150.07;68.03;62462.28;5011084;28;20061;-82
2021/06/03 04:22:12;;;;;;;40.75;33.38;;;;;;;-150.07;68.49;62317.88;5013030;28;20533;-82
2021/06/03 04:24:39;;;;;;;42.97;32.03;;;;;;;-150.07;68.38;63136.31;5012755;28;20479;-81
2021/06/03 04:27:06;;;;;;;37.25;30.58;;;;;;;-150.07;67.79;62386.94;5012331;28;20030;-82
2021/06/03 04:29:33;;;;;;;44.00;31.67;;;;;;;-150.07;68.37;62525.09;5012633;28;20029;-82
2021/06/03 04:32:00;;;;;;;45.13;30.27;;;;;;;-150.07;67.93;62491.59;5011023;28;20026;-82
2021/06/03 04:34:27;;;;;;;38.25;31.50;;;;;;;-150.07;68.36;62437.19;5012207;28;20030;-81
2021/06/03 04:36:54;;;;;;;46.53;34.25;;;;;;;-150.07;68.84;62361.84;5012142;28;20033;-82
2021/06/03 04:39:21;;;;;;;41.50;32.97;;;;;;;-150.07;70.04;62129.50;5012037;28;20617;-82
2021/06/03 04:41:48;;;;;;;49.47;37.75;;;;;;;-150.07;70.84;62688.34;5011196;28;20030;-83
2021/06/03 04:44:15;;;;;;;42.35;35.85;;;;;;;-150.07;70.95;62363.94;5011888;28;20038;-83
2021/06/03 04:46:41;;;;;;;45.55;36.45;;;;;;;-150.07;70.62;62433.00;5010739;28;20430;-82
2021/06/03 04:49:08;;;;;;;44.40;35.33;;;;;;;-150.07;70.16;62470.66;5011912;28;20030;-83
2021/06/03 04:51:38;;;;;;;44.47;35.42;;;;;;;-150.07;70.17;62456.03;5011968;28;20030;-84
2021/06/03 04:54:06;;;;;;;44.78;36.05;;;;;;;-150.07;69.71;62520.91;5011870;28;20040;-82
2021/06/03 04:56:33;;;;;;;44.33;34.20;;;;;;;-150.07;69.35;62462.28;5011885;28;20026;-83
2021/06/03 04:59:00;;;;;;;47.35;34.50;;;;;;;-150.07;69.49;63077.69;5011610;28;20022;-82
2021/06/03 05:01:27;;;;;;;44.78;35.25;;;;;;;-150.07;70.08;62313.69;5012130;28;20022;-82
2021/06/03 05:03:54;;;;;;;46.25;36.22;;;;;;;-150.07;70.68;62366.03;5011860;28;20030;-82
2021/06/03 05:06:21;;;;;;;49.47;37.83;;;;;;;-150.07;71.00;62458.13;5011857;28;20026;-82
2021/06/03 05:08:48;;;;;;;48.67;35.63;;;;;;;-150.07;70.33;62975.13;5017237;28;20018;-82
2021/06/03 05:11:14;;;;;;;48.90;36.85;;;;;;;-150.07;69.99;62560.66;5026878;28;20633;-81
2021/06/03 05:13:41;;;;;;;50.60;33.78;;;;;;;-150.07;70.23;62487.41;5027527;28;20036;-82
2021/06/03 05:16:08;;;;;;;47.28;33.28;;;;;;;-150.07;69.81;62546.03;5023210;28;20045;-83
2021/06/03 05:18:37;;;;;;;45.35;35.20;;;;;;;-150.07;70.41;62340.91;5003788;28;20018;-84
2021/06/03 05:21:06;;;;;;;45.35;37.15;;;;;;;-150.07;71.99;62361.84;4993249;28;20041;-84
2021/06/03 05:23:33;;;;;;;47.38;36.78;;;;;;;-150.07;72.81;62278.13;5009805;28;20875;-84
2021/06/03 05:26:00;;;;;;;47.25;35.80;;;;;;;-150.07;72.66;62391.13;5011326;28;20021;-84
2021/06/03 05:28:27;;;;;;;45.25;36.70;;;;;;;-150.07;72.12;62428.81;5011492;28;20022;-83
2021/06/03 05:30:53;;;;;;;41.97;34.70;;;;;;;-150.07;71.25;62512.53;5011735;28;20092;-85
2021/06/03 05:33:20;;;;;;;40.95;34.58;;;;;;;-150.07;71.00;62510.44;5011354;28;20030;-85
2021/06/03 05:35:47;;;;;;;48.20;36.92;;;;;;;-150.07;70.77;63119.56;5010386;28;20030;-84
2021/06/03 05:38:14;;;;;;;48.15;37.67;;;;;;;-150.07;70.16;62525.09;4997652;28;20030;-84
2021/06/03 05:40:41;;;;;;;44.55;36.97;;;;;;;-150.07;69.37;62504.16;5010698;28;20048;-82
2021/06/03 05:43:08;;;;;;;47.42;40.55;;;;;;;-150.07;68.97;62307.41;5009839;28;20570;-84
2021/06/03 05:45:34;;;;;;;51.30;43.83;;;;;;;-150.07;68.45;62416.25;5009628;28;20439;-84
2021/06/03 05:48:01;;;;;;;50.88;42.72;;;;;;;-150.07;68.18;62571.13;5011194;28;20042;-84
2021/06/03 05:50:28;;;;;;;51.25;44.92;;;;;;;-150.07;68.13;63395.91;5011381;28;20022;-82
2021/06/03 05:52:55;;;;;;;50.95;43.50;;;;;;;-150.07;68.10;62562.75;4998688;28;20394;-83
2021/06/03 05:55:23;;;;;;;53.00;43.65;;;;;;;-150.07;67.80;63197.03;5009612;28;20407;-83
2021/06/03 05:57:51;;;;;;;48.33;42.83;;;;;;;-150.07;67.83;63113.28;5010885;28;20129;-84
2021/06/03 06:00:24;;;;;;;47.92;41.25;;;;;;;-150.07;67.70;62625.56;5011431;28;20244;-82
2021/06/03 06:02:56;;;;;;;46.08;41.17;;;;;;;-150.07;67.36;62552.31;5010105;28;20026;-82
2021/06/03 06:08:12;;;;;;;48.85;41.40;;;;;;;-150.07;67.08;62684.16;5011179;28;20044;-82
2021/06/03 06:10:40;;;;;;;48.05;39.92;;;;;;;-150.07;67.75;62562.75;5010386;28;20455;-83
2021/06/03 06:13:07;;;;;;;44.65;38.70;;;;;;;-150.07;68.60;62608.81;5010836;28;20025;-82
2021/06/03 06:15:36;;;;;;;44.72;36.60;;;;;;;-150.07;68.74;62412.06;5011165;28;20061;-81
2021/06/03 06:18:04;;;;;;;44.60;39.33;;;;;;;-150.07;69.31;62621.38;5010610;28;20113;-82
2021/06/03 06:20:33;;;;;;;52.22;41.20;;;;;;;-150.07;69.61;62862.09;5010831;28;20489;-82
2021/06/03 06:23:00;;;;;;;48.25;40.38;;;;;;;-150.07;70.34;62493.69;5010838;28;20072;-82
2021/06/03 06:25:27;;;;;;;44.05;38.88;;;;;;;-150.07;70.51;62361.84;5010705;28;20049;-83
2021/06/03 06:27:55;;;;;;;53.45;39.90;;;;;;;-150.07;70.61;62550.22;4995698;28;20113;-83
2021/06/03 06:30:22;;;;;;;48.42;40.00;;;;;;;-150.07;70.63;62556.47;5012361;28;20497;-82
2021/06/03 06:32:49;;;;;;;52.15;41.60;;;;;;;-150.07;70.22;62541.84;5010959;28;20030;-83
2021/06/03 06:35:17;;;;;;;58.00;42.85;;;;;;;-150.07;70.61;62962.56;5010778;28;20069;-81
2021/06/03 06:37:45;;;;;;;54.63;43.55;;;;;;;-150.07;71.16;62462.28;5013024;28;20083;-82
2021/06/03 06:40:12;;;;;;;53.53;44.88;;;;;;;-150.07;72.49;62447.66;5011140;28;20046;-83
2021/06/03 06:42:39;;;;;;;57.28;45.92;;;;;;;-150.07;73.10;62449.75;4998099;28;20068;-82
2021/06/03 06:45:08;;;;;;;59.53;47.47;;;;;;;-150.07;73.64;62395.31;4996993;28;20021;-85
2021/06/03 06:47:36;;;;;;;56.92;45.50;;;;;;;-150.07;74.61;62361.84;5010488;28;20100;-83
2021/06/03 06:50:08;;;;;;;53.58;45.03;;;;;;;-150.07;75.30;62353.47;5012963;28;20021;-84
2021/06/03 06:52:35;;;;;;;61.55;46.55;;;;;;;-150.07;75.59;62370.19;5014061;28;20037;-85
2021/06/03 06:55:02;;;;;;;59.05;45.85;;;;;;;-150.07;75.65;62349.28;5014027;28;20060;-86
2021/06/03 06:57:29;;;;;;;54.95;45.42;;;;;;;-150.07;75.69;62426.72;5014403;28;20827;-85
2021/06/03 06:59:56;;;;;;;60.38;46.67;;;;;;;-150.07;75.87;62127.41;5014462;28;20104;-85
2021/06/03 07:02:23;;;;;;;53.28;44.55;;;;;;;-150.07;75.80;62257.19;5014363;28;20038;-84
2021/06/03 07:04:50;;;;;;;58.10;44.65;;;;;;;-150.07;75.46;62330.44;5014112;28;20083;-86
2021/06/03 07:07:18;;;;;;;52.83;44.47;;;;;;;-150.07;75.70;62412.06;5013739;28;20045;-86
2021/06/03 07:09:45;;;;;;;54.20;46.35;;;;;;;-150.07;75.36;62338.81;5010318;28;20045;-86
2021/06/03 07:12:13;;;;;;;53.45;44.95;;;;;;;-150.07;75.07;62437.19;5002558;28;20030;-86
2021/06/03 07:14:40;;;;;;;57.95;45.72;;;;;;;-150.07;74.91;62420.44;5012010;28;20026;-85
2021/06/03 07:17:07;;;;;;;53.72;44.47;;;;;;;-150.07;74.65;62343.00;5012497;28;20033;-86
2021/06/03 07:19:34;;;;;;;55.90;43.50;;;;;;;-150.07;74.26;62244.63;5012170;28;20475;-86
2021/06/03 07:22:02;;;;;;;52.25;44.13;;;;;;;-150.07;74.45;62328.34;5013911;28;20164;-85
2021/06/03 07:24:28;;;;;;;48.92;42.78;;;;;;;-150.07;74.51;63123.75;5012443;28;20026;-84
2021/06/03 07:26:55;;;;;;;50.42;42.75;;;;;;;-150.07;73.72;63100.72;5011990;28;20446;-86
2021/06/03 07:29:22;;;;;;;55.50;45.08;;;;;;;-150.07;73.61;62363.94;5012903;28;20040;-86
2021/06/03 07:31:49;;;;;;;56.72;44.60;;;;;;;-150.07;74.53;62160.91;4997036;28;20054;-85
2021/06/03 07:34:15;;;;;;;58.20;46.38;;;;;;;-150.07;74.67;62319.97;4993320;28;20033;-86
2021/06/03 07:36:42;;;;;;;55.17;45.35;;;;;;;-150.07;74.89;62227.88;4993166;28;20031;-86
2021/06/03 07:39:09;;;;;;;50.40;43.92;;;;;;;-150.07;75.13;62374.38;5003006;28;20053;-87
2021/06/03 07:41:36;;;;;;;54.05;45.65;;;;;;;-150.07;75.35;62361.84;5013917;28;20026;-87
2021/06/03 07:44:04;;;;;;;52.00;45.38;;;;;;;-150.07;75.67;62361.84;5012588;28;20026;-87
2021/06/03 07:46:32;;;;;;;61.72;48.70;;;;;;;-150.07;75.55;62209.03;5001543;28;20722;-87
2021/06/03 07:48:59;;;;;;;54.08;45.28;;;;;;;-150.07;75.60;62236.25;4994563;28;20476;-87
2021/06/03 07:51:27;;;;;;;60.55;47.47;;;;;;;-150.07;76.13;62357.66;4994559;28;20022;-85
2021/06/03 07:53:54;;;;;;;57.25;46.13;;;;;;;-150.07;76.39;62083.47;5001765;28;20029;-88
2021/06/03 07:56:20;;;;;;;59.83;46.20;;;;;;;-150.07;76.31;62215.31;5013652;28;20037;-88
2021/06/03 07:58:47;;;;;;;54.97;44.40;;;;;;;-150.07;76.57;62621.38;4999425;28;20030;-87
2021/06/03 08:01:14;;;;;;;49.63;44.13;;;;;;;-150.07;76.41;62129.50;5014540;28;20030;-87
2021/06/03 08:03:41;;;;;;;50.08;41.72;;;;;;;-150.07;76.43;62361.84;5012974;28;20041;-87
2021/06/03 08:06:09;;;;;;;52.50;44.90;;;;;;;-150.07;76.30;62466.47;5018089;28;20156;-89
2021/06/03 08:08:37;;;;;;;48.22;42.20;;;;;;;-150.07;76.28;62960.47;5017065;28;20042;-87
2021/06/03 08:11:08;;;;;;;48.05;42.58;;;;;;;-150.07;75.70;62470.66;5016861;28;20061;-87
2021/06/03 08:13:36;;;;;;;45.08;37.75;;;;;;;-150.07;75.90;62303.22;5013135;28;20474;-88
2021/06/03 08:16:04;;;;;;;47.38;40.33;;;;;;;-150.07;75.60;62368.09;5007989;28;20038;-88
2021/06/03 08:18:31;;;;;;;49.90;41.60;;;;;;;-150.07;75.89;62299.03;5021372;28;20068;-86
2021/06/03 08:21:03;;;;;;;52.53;42.95;;;;;;;-150.07;76.38;62409.97;5014164;28;20057;-88
2021/06/03 08:23:31;;;;;;;46.83;39.90;;;;;;;-150.07;76.58;62428.81;5013288;28;20026;-88
2021/06/03 08:25:58;;;;;;;41.72;36.97;;;;;;;-150.07;76.25;63023.28;5000200;28;20033;-89
2021/06/03 08:28:27;;;;;;;48.47;41.22;;;;;;;-150.07;75.54;62562.75;5012524;28;20505;-86
2021/06/03 08:30:56;;;;;;;46.90;39.33;;;;;;;-150.07;75.63;62397.41;5013292;28;20029;-87
2021/06/03 08:33:24;;;;;;;49.50;42.25;;;;;;;-150.07;75.79;63132.13;5004220;28;20499;-88
2021/06/03 08:35:51;;;;;;;45.30;40.47;;;;;;;-150.07;75.88;62426.72;4993878;28;20101;-88
2021/06/03 08:38:18;;;;;;;47.33;39.25;;;;;;;-150.07;75.76;62451.84;4996746;28;20395;-88
2021/06/03 08:40:45;;;;;;;43.50;35.97;;;;;;;-150.07;75.78;62443.47;5025350;28;20026;-87
2021/06/03 08:43:12;;;;;;;49.72;38.17;;;;;;;-150.07;75.71;63111.19;5012300;28;20056;-88
2021/06/03 08:45:42;;;;;;;37.45;32.85;;;;;;;-150.07;75.67;62319.97;5012001;28;20036;-88
2021/06/03 08:48:10;;;;;;;36.40;32.50;;;;;;;-150.07;75.10;61934.88;5010251;28;20030;-88
2021/06/03 08:50:42;;;;;;;40.10;35.67;;;;;;;-150.07;75.41;62131.59;4992102;28;20121;-88
2021/06/03 08:53:09;;;;;;;49.28;36.85;;;;;;;-150.07;75.75;62363.94;4992461;28;20026;-88
2021/06/03 08:58:24;;;;;;;41.85;36.53;;;;;;;-150.07;74.81;62445.56;5013112;28;20029;-88
2021/06/03 09:00:51;;;;;;;43.92;36.75;;;;;;;-150.07;74.71;62378.56;5011771;28;20057;-85
2021/06/03 09:03:18;;;;;;;41.15;36.58;;;;;;;-150.07;74.32;62774.19;5018024;28;20113;-86
2021/06/03 09:05:45;;;;;;;40.28;35.13;;;;;;;-150.07;74.03;62332.53;5017553;28;20483;-84
2021/06/03 09:08:24;;;;;;;38.70;34.60;;;;;;;-150.07;73.42;62556.47;5018068;28;20097;-88
2021/06/03 09:10:56;;;;;;;42.35;36.45;;;;;;;-150.07;73.12;62382.75;5007727;28;20069;-87
2021/06/03 09:13:31;;;;;;;40.72;36.25;;;;;;;-150.07;73.67;62445.56;4994891;28;20041;-87
2021/06/03 09:16:01;;;;;;;45.33;38.55;;;;;;;-150.07;74.44;62485.31;5010936;28;20483;-86
2021/06/03 09:18:37;;;;;;;45.38;38.58;;;;;;;-150.07;74.56;63249.38;5010320;28;20033;-87
2021/06/03 09:21:25;;;;;;;42.22;37.08;;;;;;;-150.07;74.42;62225.78;5018078;28;20402;-87
2021/06/03 09:24:04;;;;;;;44.15;38.75;;;;;;;-150.07;73.98;62508.34;5011702;28;20037;-87
2021/06/03 09:26:42;;;;;;;43.47;37.45;;;;;;;-150.07;74.08;63215.88;5013329;28;20038;-85
2021/06/03 09:29:09;;;;;;;43.42;38.88;;;;;;;-150.07;73.89;63146.78;5011072;28;20790;-87
2021/06/03 09:31:36;;;;;;;47.10;40.20;;;;;;;-150.07;74.31;62451.84;5012212;28;20030;-87
2021/06/03 09:34:09;;;;;;;49.80;39.63;;;;;;;-150.07;74.14;62286.47;5011273;28;20072;-86
2021/06/03 09:36:38;;;;;;;45.30;38.92;;;;;;;-150.07;74.12;62449.75;5004885;28;20395;-80
2021/06/03 09:39:04;;;;;;;51.72;42.58;;;;;;;-150.07;74.54;62483.22;5004229;28;20042;-84
2021/06/03 09:41:32;;;;;;;50.30;41.10;;;;;;;-150.07;74.29;62512.53;5010951;28;20026;-90
2021/06/03 09:44:13;;;;;;;49.00;41.75;;;;;;;-150.07;74.63;62435.09;5013535;28;20061;-91
2021/06/03 09:46:52;;;;;;;52.47;42.60;;;;;;;-150.07;74.48;62430.91;5012220;28;20030;-93
2021/06/03 09:49:25;;;;;;;49.63;43.13;;;;;;;-150.07;74.84;62286.47;4996598;28;20360;-89
2021/06/03 09:51:54;;;;;;;57.05;45.00;;;;;;;-150.07;74.96;62361.84;4998618;28;20423;-87
2021/06/03 09:54:22;;;;;;;54.17;43.88;;;;;;;-150.07;75.02;62903.97;5010711;28;20026;-84
2021/06/03 09:56:52;;;;;;;56.03;45.28;;;;;;;-150.07;74.75;62523.00;5007732;28;20041;-79
2021/06/03 09:59:20;;;;;;;;;;;;;;;-150.07;74.73;62479.03;4998977;28;20080;-85
2021/06/03 10:01:52;;;;;;;46.80;38.38;;;;;;;-150.07;75.05;62407.88;5011185;28;19972;-84
2021/06/03 10:04:29;;;;;;;50.97;40.45;;;;;;;-150.07;75.87;62361.84;5010766;28;20037;-89
2021/06/03 10:07:19;;;;;;;48.03;42.17;;;;;;;-150.07;76.11;62389.03;5010675;28;20029;-82
2021/06/03 10:10:07;;;;;;;51.72;42.28;;;;;;;-150.07;76.36;62319.97;5011193;28;20390;-86
2021/06/03 10:12:48;;;;;;;52.67;42.85;;;;;;;-150.07;76.67;62311.59;5014264;28;20034;-93
2021/06/03 10:15:21;;;;;;;50.67;44.03;;;;;;;-150.07;76.78;62340.91;5017299;28;20030;-88
2021/06/03 10:17:51;;;;;;;53.88;44.05;;;;;;;-150.07;76.85;62338.81;4998867;28;20509;-92
2021/06/03 10:20:31;;;;;;;57.83;47.08;;;;;;;-150.07;76.83;63115.38;5012751;28;20037;-84
2021/06/03 10:22:59;;;;;;;52.05;45.72;;;;;;;-150.07;76.84;62319.97;5010147;28;20034;-89
2021/06/03 10:25:28;;;;;;;56.63;47.13;;;;;;;-150.07;77.07;62286.47;5003632;28;20029;-88
2021/06/03 10:27:58;;;;;;;57.45;47.78;;;;;;;-150.07;76.59;62152.53;5014773;28;20041;-88
2021/06/03 10:30:29;;;;;;;60.42;47.17;;;;;;;-150.07;76.90;62307.41;5013396;28;20044;-80
2021/06/03 10:32:59;;;;;;;59.00;47.85;;;;;;;-150.07;77.29;62345.09;5013784;28;20619;-89
2021/06/03 10:35:30;;;;;;;56.67;46.42;;;;;;;-150.07;77.22;62374.38;4999712;28;20026;-87
2021/06/03 10:37:58;;;;;;;54.60;47.17;;;;;;;-150.07;76.91;62229.97;5003568;28;20030;-90
2021/06/03 10:40:28;;;;;;;60.67;47.65;;;;;;;-150.07;76.80;62317.88;4998827;28;20050;-90
2021/06/03 10:42:56;;;;;;;63.88;49.05;;;;;;;-150.07;77.07;63017.00;5013685;28;20034;-91
2021/06/03 10:45:25;;;;;;;62.03;48.28;;;;;;;-150.07;77.15;62160.91;5005157;28;20117;-88
2021/06/03 10:47:53;;;;;;;62.13;48.25;;;;;;;-150.07;77.02;62336.72;5024807;28;20076;-91
2021/06/03 10:50:29;;;;;;;66.53;48.95;;;;;;;-150.07;77.18;62165.09;5023622;28;20105;-93
2021/06/03 10:53:05;;;;;;;66.68;49.35;;;;;;;-150.07;77.22;62196.50;5018911;28;20029;-89
2021/06/03 10:55:39;;;;;;;71.75;54.13;;;;;;;-150.07;77.04;62303.22;5034846;28;20037;-92
2021/06/03 10:58:08;;;;;;;73.45;55.25;;;;;;;-150.07;77.20;62158.81;5037804;28;20029;-89
2021/06/03 11:01:02;;;;;;;75.20;55.15;;;;;;;-150.07;77.44;63079.78;5028483;28;20498;-93
2021/06/03 11:03:52;;;;;;;79.75;57.15;;;;;;;-150.07;77.44;62288.56;5013657;28;20117;-89
2021/06/03 11:06:31;;;;;;;84.47;58.67;;;;;;;-150.07;77.61;62313.69;5026624;28;20033;-89
2021/06/03 11:09:00;;;;;;;80.20;57.15;;;;;;;-150.07;77.88;62353.47;5019728;28;20284;-91
2021/06/03 11:11:39;;;;;;;89.25;56.90;;;;;;;-150.07;78.13;62173.47;5014692;28;20124;-89
2021/06/03 11:14:14;;;;;;;85.45;56.72;;;;;;;-150.07;78.13;62296.94;5013573;28;20057;-89
2021/06/03 11:16:40;;;;;;;88.82;60.70;;;;;;;-150.07;78.33;62282.31;5013576;28;20046;-87
2021/06/03 11:19:08;;;;;;;98.63;60.28;;;;;;;-150.07;78.65;62278.13;5014152;28;20033;-89